Time;durP1;ratioP1;P1;durP2;ratioP2;P2;SDS_P1;SDS_P2;PMS_P1;PMS_P2;Temp;Humidity;BMP_temperature;BMP_pressure;BME280_temperature;BME280_humidity;BME280_pressure;Samples;Min_cycle;Max_cycle;Signal;HPM_P1;HPM_P2
2021/09/27 00:01:28;;;;;;;45.90;39.77;;;17.80;1.00;18.30;100677.00;;;;5000028;28;20557;-79
2021/09/27 00:03:56;;;;;;;49.23;41.07;;;17.70;1.00;18.50;100668.00;;;;5008763;28;20454;-78
2021/09/27 00:06:26;;;;;;;47.83;41.30;;;17.70;1.00;18.50;100643.00;;;;5011380;28;20470;-79
2021/09/27 00:08:54;;;;;;;45.80;40.10;;;17.70;1.00;18.50;100670.00;;;;5025594;28;20538;-80
2021/09/27 00:11:26;;;;;;;47.07;39.67;;;17.70;1.00;18.40;100644.00;;;;5012441;28;20524;-80
2021/09/27 00:14:00;;;;;;;46.93;40.20;;;17.70;1.00;18.40;100674.00;;;;5007540;28;20465;-79
2021/09/27 00:16:30;;;;;;;48.17;39.30;;;17.70;1.00;18.50;100650.00;;;;5007323;28;20481;-79
2021/09/27 00:19:00;;;;;;;45.07;40.10;;;17.70;1.00;18.50;100686.00;;;;5032629;28;20457;-80
2021/09/27 00:21:33;;;;;;;46.07;39.40;;;17.70;1.00;18.50;100670.00;;;;5017379;28;20454;-79
2021/09/27 00:24:03;;;;;;;46.87;39.10;;;17.80;1.00;18.50;100687.00;;;;5018867;28;20821;-78
2021/09/27 00:26:34;;;;;;;45.00;38.40;;;17.80;1.00;18.50;100671.00;;;;5028117;28;20482;-80
2021/09/27 00:29:02;;;;;;;42.97;38.37;;;17.70;1.00;18.50;100642.00;;;;5018430;28;20466;-75
2021/09/27 00:31:31;;;;;;;43.97;38.10;;;17.80;1.00;18.50;100685.00;;;;5036762;28;20523;-76
2021/09/27 00:34:00;;;;;;;44.30;39.67;;;17.70;1.00;18.50;100681.00;;;;5011375;28;20485;-75
2021/09/27 00:36:28;;;;;;;41.90;37.33;;;17.70;1.00;18.50;100692.00;;;;5016165;28;20537;-75
2021/09/27 00:38:58;;;;;;;44.63;38.23;;;17.70;1.00;18.50;100682.00;;;;5030984;28;20454;-75
2021/09/27 00:41:27;;;;;;;43.77;37.93;;;17.70;1.00;18.50;100687.00;;;;5002649;28;20453;-75
2021/09/27 00:43:57;;;;;;;42.47;38.17;;;17.70;1.00;18.50;100682.00;;;;4999319;28;20454;-75
2021/09/27 00:46:29;;;;;;;39.50;35.03;;;17.70;1.00;18.50;100682.00;;;;5019584;28;20491;-76
2021/09/27 00:48:57;;;;;;;43.27;38.77;;;17.70;1.00;18.50;100675.00;;;;5015155;28;20460;-76
2021/09/27 00:51:30;;;;;;;40.10;35.77;;;17.70;1.00;18.50;100678.00;;;;4999495;28;20458;-76
2021/09/27 00:54:02;;;;;;;45.70;38.13;;;17.70;1.00;18.50;100671.00;;;;5016217;28;21016;-74
2021/09/27 00:56:36;;;;;;;45.47;39.07;;;17.70;1.00;18.40;100665.00;;;;5015236;28;20817;-76
2021/09/27 00:59:09;;;;;;;45.10;38.70;;;17.60;1.00;18.40;100672.00;;;;4992170;28;20978;-75
2021/09/27 01:01:37;;;;;;;45.20;38.40;;;17.60;1.00;18.30;100670.00;;;;4994970;28;20462;-76
2021/09/27 01:04:07;;;;;;;43.93;37.03;;;17.60;1.00;18.30;100674.00;;;;4998558;28;20450;-75
2021/09/27 01:06:55;;;;;;;44.70;37.90;;;17.50;1.00;18.30;100668.00;;;;5012958;28;20484;-74
2021/09/27 01:09:42;;;;;;;47.73;38.77;;;17.50;1.00;18.20;100670.00;;;;4995817;28;20529;-76
2021/09/27 01:12:46;;;;;;;46.90;40.33;;;17.50;1.00;18.20;100665.00;;;;4996646;28;20513;-76
2021/09/27 01:15:30;;;;;;;49.47;40.00;;;17.40;1.00;18.20;100666.00;;;;4978089;28;20993;-75
2021/09/27 01:18:11;;;;;;;50.50;39.93;;;17.40;1.00;18.10;100661.00;;;;4987568;28;20460;-76
2021/09/27 01:21:09;;;;;;;51.60;41.13;;;17.30;1.00;18.00;100649.00;;;;5012964;28;20454;-76
2021/09/27 01:24:34;;;;;;;52.97;42.43;;;17.30;1.00;18.00;100673.00;;;;5008822;28;20453;-75
2021/09/27 01:27:36;;;;;;;54.90;42.17;;;17.30;1.00;18.00;100668.00;;;;5008713;28;20478;-76
2021/09/27 01:30:38;;;;;;;50.83;39.20;;;17.30;1.00;18.00;100651.00;;;;4993813;28;20438;-76
2021/09/27 01:33:12;;;;;;;51.40;40.93;;;17.30;1.00;18.10;100647.00;;;;5010820;28;20453;-75
2021/09/27 01:35:50;;;;;;;51.10;41.37;;;17.30;1.00;18.10;100664.00;;;;5009240;28;20473;-76
2021/09/27 01:38:29;;;;;;;54.53;41.80;;;17.30;1.00;18.00;100639.00;;;;5013642;28;20446;-77
2021/09/27 01:41:28;;;;;;;59.73;42.57;;;17.30;1.00;18.00;100659.00;;;;5019018;28;20461;-76
2021/09/27 01:44:14;;;;;;;56.90;42.00;;;17.30;1.00;18.00;100674.00;;;;5002090;28;20455;-75
2021/09/27 01:46:49;;;;;;;57.30;43.90;;;17.30;1.00;18.00;100635.00;;;;5019261;28;20561;-74
2021/09/27 01:49:24;;;;;;;72.57;45.87;;;17.20;1.00;17.90;100675.00;;;;5018071;28;20484;-76
2021/09/27 01:52:01;;;;;;;74.40;46.20;;;17.20;1.00;17.90;100663.00;;;;5020707;28;20467;-76
2021/09/27 01:54:36;;;;;;;69.80;46.00;;;17.20;1.00;17.90;100652.00;;;;5010232;28;20464;-75
2021/09/27 01:57:18;;;;;;;65.43;45.07;;;17.10;1.00;17.90;100670.00;;;;5034035;28;20476;-74
2021/09/27 02:00:02;;;;;;;66.20;43.47;;;17.20;1.00;17.90;100670.00;;;;5018957;28;20451;-75
2021/09/27 02:02:36;;;;;;;59.47;42.93;;;17.10;1.00;17.90;100682.00;;;;5035328;28;20453;-73
2021/09/27 02:05:15;;;;;;;60.00;44.47;;;17.10;1.00;17.90;100682.00;;;;5034407;28;20517;-75
2021/09/27 02:07:51;;;;;;;56.50;41.07;;;17.10;1.00;17.90;100676.00;;;;5025734;28;20444;-74
2021/09/27 02:10:27;;;;;;;59.40;42.87;;;17.20;1.00;18.00;100651.00;;;;5020662;28;20484;-73
2021/09/27 02:13:06;;;;;;;65.97;43.83;;;17.20;1.00;18.00;100677.00;;;;5022023;28;20453;-74
2021/09/27 02:15:39;;;;;;;56.47;40.27;;;17.20;1.00;18.00;100670.00;;;;5003106;28;20485;-75
2021/09/27 02:18:20;;;;;;;59.73;42.07;;;17.20;1.00;18.10;100675.00;;;;5000497;28;20461;-75
2021/09/27 02:20:57;;;;;;;55.93;41.70;;;17.30;1.00;18.10;100673.00;;;;5020581;28;20449;-75
2021/09/27 02:23:32;;;;;;;49.70;38.87;;;17.30;1.00;18.10;100677.00;;;;5018091;28;20973;-74
2021/09/27 02:26:00;;;;;;;49.27;36.03;;;17.30;1.00;18.10;100673.00;;;;5020489;28;20471;-74
2021/09/27 02:28:29;;;;;;;50.27;40.27;;;17.30;1.00;18.10;100656.00;;;;4999827;28;20457;-73
2021/09/27 02:31:06;;;;;;;45.40;37.77;;;17.30;1.00;18.10;100669.00;;;;5010978;28;20456;-73
2021/09/27 02:33:46;;;;;;;48.77;38.37;;;17.30;1.00;18.10;100670.00;;;;5015526;28;20864;-73
2021/09/27 02:36:23;;;;;;;45.60;36.97;;;17.30;1.00;18.00;100655.00;;;;5020249;28;20473;-73
2021/09/27 02:39:06;;;;;;;50.17;39.20;;;17.20;1.00;18.10;100627.00;;;;5017021;28;20933;-74
2021/09/27 02:41:40;;;;;;;52.33;39.90;;;17.20;1.00;18.10;100659.00;;;;5003794;28;20445;-74
2021/09/27 02:44:08;;;;;;;49.17;38.20;;;17.20;1.00;18.10;100637.00;;;;5000399;28;20533;-73
2021/09/27 02:46:42;;;;;;;48.97;37.97;;;17.30;1.00;18.10;100657.00;;;;4999226;28;20481;-73
2021/09/27 02:49:11;;;;;;;47.53;37.43;;;17.30;1.00;18.10;100655.00;;;;5017695;28;20453;-73
2021/09/27 02:51:46;;;;;;;46.53;37.20;;;17.30;1.00;18.10;100654.00;;;;5013720;28;20544;-74
2021/09/27 02:54:26;;;;;;;49.40;36.90;;;17.20;1.00;18.00;100663.00;;;;5020201;28;20557;-74
2021/09/27 02:57:10;;;;;;;50.77;39.00;;;17.20;1.00;18.10;100650.00;;;;5010700;28;20476;-74
2021/09/27 02:59:59;;;;;;;52.63;40.70;;;17.20;1.00;18.00;100651.00;;;;5010266;28;20821;-74
2021/09/27 03:02:38;;;;;;;48.67;37.33;;;17.20;1.00;18.00;100661.00;;;;4993253;28;20461;-75
2021/09/27 03:05:16;;;;;;;53.07;39.10;;;17.10;1.00;18.00;100656.00;;;;5015833;28;20449;-74
2021/09/27 03:08:03;;;;;;;55.20;38.13;;;17.10;1.00;18.00;100659.00;;;;4999952;28;20449;-74
2021/09/27 03:10:51;;;;;;;52.40;39.33;;;17.10;1.00;18.00;100662.00;;;;5015754;28;20460;-73
2021/09/27 03:13:27;;;;;;;64.90;41.03;;;17.10;1.00;18.00;100661.00;;;;5006902;28;20454;-74
2021/09/27 03:16:14;;;;;;;57.27;41.50;;;17.00;1.00;18.00;100660.00;;;;5009775;28;20477;-73
2021/09/27 03:19:01;;;;;;;68.33;44.40;;;17.00;1.00;17.90;100657.00;;;;5004409;28;20450;-74
2021/09/27 03:21:40;;;;;;;64.57;43.77;;;17.10;1.00;17.90;100657.00;;;;5013117;28;20457;-74
2021/09/27 03:24:29;;;;;;;71.47;47.07;;;17.00;1.00;17.90;100646.00;;;;5011899;28;21013;-74
2021/09/27 03:27:04;;;;;;;73.20;46.30;;;17.00;1.00;17.90;100653.00;;;;4993102;28;20471;-73
2021/09/27 03:29:43;;;;;;;74.97;45.90;;;17.10;1.00;17.90;100611.00;;;;5010335;28;20457;-73
2021/09/27 03:32:23;;;;;;;71.10;47.00;;;17.10;1.00;18.00;100654.00;;;;5014335;28;20460;-73
2021/09/27 03:35:01;;;;;;;74.50;45.10;;;17.10;1.00;18.00;100651.00;;;;5015125;28;20876;-74
2021/09/27 03:37:43;;;;;;;58.37;41.87;;;17.10;1.00;18.00;100648.00;;;;4988293;28;20496;-73
2021/09/27 03:40:32;;;;;;;56.73;41.13;;;17.20;1.00;17.90;100648.00;;;;5008819;28;20946;-74
2021/09/27 03:43:13;;;;;;;58.90;41.33;;;17.10;1.00;17.90;100649.00;;;;5006504;28;20446;-74
2021/09/27 03:45:53;;;;;;;50.33;37.43;;;17.10;1.00;18.00;100658.00;;;;4996859;28;20459;-74
2021/09/27 03:48:30;;;;;;;52.30;38.47;;;17.10;1.00;17.90;100663.00;;;;5014829;28;21013;-73
2021/09/27 03:51:05;;;;;;;52.03;38.33;;;17.00;1.00;17.90;100651.00;;;;5015235;28;20469;-73
2021/09/27 03:53:40;;;;;;;54.63;37.97;;;17.00;1.00;17.90;100675.00;;;;5014894;28;20449;-73
2021/09/27 03:56:16;;;;;;;62.63;40.40;;;17.00;1.00;17.90;100672.00;;;;5015309;28;20480;-74
2021/09/27 03:58:52;;;;;;;66.20;40.13;;;16.90;1.00;17.90;100667.00;;;;4996402;28;20459;-74
2021/09/27 04:01:34;;;;;;;65.03;40.97;;;17.00;1.00;17.90;100663.00;;;;5014422;28;20442;-74
2021/09/27 04:04:31;;;;;;;58.13;40.00;;;16.90;1.00;17.90;100670.00;;;;5014640;28;20513;-73
2021/09/27 04:07:21;;;;;;;54.67;37.93;;;17.00;1.00;17.90;100664.00;;;;5014220;28;20488;-73
2021/09/27 04:10:03;;;;;;;57.57;38.83;;;17.00;1.00;17.90;100662.00;;;;5010296;28;20457;-74
2021/09/27 04:12:52;;;;;;;62.57;41.10;;;17.00;1.00;17.90;100610.00;;;;5013132;28;20465;-73
2021/09/27 04:15:42;;;;;;;61.40;40.03;;;17.00;1.00;17.90;100642.00;;;;5010321;28;20478;-73
2021/09/27 04:18:20;;;;;;;60.50;39.33;;;17.00;1.00;17.80;100644.00;;;;5005728;28;22382;-73
2021/09/27 04:21:04;;;;;;;63.40;41.47;;;16.90;1.00;17.90;100657.00;;;;5012512;28;20457;-74
2021/09/27 04:23:59;;;;;;;59.73;39.93;;;16.90;1.00;17.90;100655.00;;;;5011689;28;20464;-72
2021/09/27 04:26:44;;;;;;;57.77;38.50;;;16.90;1.00;17.90;100655.00;;;;5012058;28;20481;-72
2021/09/27 04:29:55;;;;;;;58.47;40.13;;;16.90;1.00;17.90;100652.00;;;;4985418;28;20460;-72
2021/09/27 04:32:38;;;;;;;64.90;42.00;;;16.90;1.00;17.90;100656.00;;;;4983931;28;20470;-73
2021/09/27 04:35:20;;;;;;;56.13;38.33;;;16.90;1.00;17.80;100646.00;;;;5012337;28;20469;-73
2021/09/27 04:37:49;;;;;;;65.53;42.60;;;16.90;1.00;17.80;100651.00;;;;5014002;28;20468;-74
2021/09/27 04:40:29;;;;;;;58.20;39.30;;;16.90;1.00;17.80;100643.00;;;;5013597;28;20939;-74
2021/09/27 04:43:20;;;;;;;60.83;40.47;;;16.90;1.00;17.70;100654.00;;;;5012065;28;20461;-75
2021/09/27 04:46:11;;;;;;;63.00;40.77;;;16.90;1.00;17.80;100649.00;;;;5011824;28;20489;-73
2021/09/27 04:49:03;;;;;;;65.00;40.93;;;16.90;1.00;17.70;100649.00;;;;5002420;28;21446;-73
2021/09/27 04:51:50;;;;;;;57.93;39.03;;;16.90;1.00;17.70;100649.00;;;;5012242;28;20465;-75
2021/09/27 04:54:52;;;;;;;48.20;35.87;;;16.90;1.00;17.70;100628.00;;;;5004000;28;20500;-74
2021/09/27 04:57:27;;;;;;;53.40;36.47;;;16.90;1.00;17.70;100644.00;;;;5014554;28;20905;-74
2021/09/27 05:00:10;;;;;;;51.60;37.67;;;16.80;1.00;17.70;100635.00;;;;5011022;28;20476;-74
2021/09/27 05:03:21;;;;;;;55.73;36.83;;;16.80;1.00;17.80;100648.00;;;;5003488;28;20452;-74
2021/09/27 05:06:12;;;;;;;50.83;36.50;;;16.90;1.00;17.80;100648.00;;;;4949357;28;20534;-73
2021/09/27 05:09:07;;;;;;;47.90;34.93;;;16.90;1.00;17.70;100626.00;;;;4993915;28;20455;-74
2021/09/27 05:12:14;;;;;;;53.33;37.80;;;16.90;1.00;17.70;100652.00;;;;5002919;28;20454;-74
2021/09/27 05:15:04;;;;;;;54.10;38.17;;;16.80;1.00;17.60;100650.00;;;;5009076;28;20462;-72
2021/09/27 05:17:57;;;;;;;53.13;37.70;;;16.80;1.00;17.60;100654.00;;;;5008621;28;20556;-74
2021/09/27 05:21:00;;;;;;;48.63;36.33;;;16.70;1.00;17.60;100646.00;;;;5011034;28;20441;-74
2021/09/27 05:23:39;;;;;;;43.90;32.07;;;16.80;1.00;17.60;100616.00;;;;5011271;28;20460;-75
2021/09/27 05:26:44;;;;;;;41.77;32.07;;;16.80;1.00;17.50;100632.00;;;;5010040;28;20478;-74
2021/09/27 05:29:31;;;;;;;44.53;32.50;;;16.80;1.00;17.50;100655.00;;;;5002554;28;20458;-73
2021/09/27 05:32:28;;;;;;;47.00;33.57;;;16.80;1.00;17.50;100654.00;;;;4994959;28;20446;-73
2021/09/27 05:35:23;;;;;;;50.07;34.70;;;16.80;1.00;17.60;100655.00;;;;5013281;28;20461;-73
2021/09/27 05:38:04;;;;;;;47.27;34.60;;;16.80;1.00;17.60;100654.00;;;;5000986;28;20487;-73
2021/09/27 05:40:42;;;;;;;47.50;33.47;;;16.80;1.00;17.60;100663.00;;;;4992740;28;20460;-74
2021/09/27 05:43:40;;;;;;;46.87;34.63;;;16.80;1.00;17.60;100661.00;;;;5010148;28;20453;-74
2021/09/27 05:46:31;;;;;;;45.53;34.43;;;16.80;1.00;17.70;100636.00;;;;5014650;28;20473;-73
2021/09/27 05:49:06;;;;;;;41.27;32.07;;;16.80;1.00;17.70;100637.00;;;;5011134;28;20446;-73
2021/09/27 05:51:40;;;;;;;44.57;33.33;;;16.80;1.00;17.70;100658.00;;;;5012088;28;20461;-73
2021/09/27 05:54:21;;;;;;;45.13;32.60;;;16.90;1.00;17.80;100656.00;;;;5013793;28;20452;-74
2021/09/27 05:57:01;;;;;;;40.70;31.57;;;16.90;1.00;17.80;100663.00;;;;5011763;28;20503;-73
2021/09/27 05:59:37;;;;;;;40.87;30.87;;;16.90;1.00;17.70;100655.00;;;;5013991;28;20548;-73
2021/09/27 06:02:31;;;;;;;40.90;31.60;;;16.90;1.00;17.90;100655.00;;;;5022090;28;20533;-72
2021/09/27 06:05:14;;;;;;;36.27;30.13;;;17.00;1.00;17.90;100655.00;;;;5025871;28;20464;-74
2021/09/27 06:07:52;;;;;;;38.07;29.10;;;17.00;1.00;17.90;100656.00;;;;5029552;28;20468;-73
2021/09/27 06:10:37;;;;;;;40.47;29.70;;;17.00;1.00;18.00;100656.00;;;;5025469;28;20513;-73
2021/09/27 06:13:16;;;;;;;35.97;29.20;;;17.10;1.00;18.10;100653.00;;;;5023056;28;20464;-74
2021/09/27 06:15:50;;;;;;;38.90;29.60;;;17.10;1.00;18.20;100661.00;;;;5014643;28;20477;-74
2021/09/27 06:18:37;;;;;;;37.83;30.43;;;17.20;1.00;18.30;100646.00;;;;5031742;28;20473;-73
2021/09/27 06:21:27;;;;;;;38.93;27.93;;;17.30;1.00;18.40;100649.00;;;;5011714;28;20446;-73
2021/09/27 06:24:13;;;;;;;37.37;29.77;;;17.50;1.00;18.50;100651.00;;;;5015291;28;20453;-74
2021/09/27 06:27:04;;;;;;;33.03;28.03;;;17.50;1.00;18.50;100648.00;;;;5018415;28;20485;-74
2021/09/27 06:29:45;;;;;;;29.40;25.20;;;17.70;1.00;18.40;100648.00;;;;5017076;28;20461;-74
2021/09/27 06:32:27;;;;;;;28.80;24.83;;;17.50;1.00;18.30;100655.00;;;;5016424;28;20520;-74
2021/09/27 06:34:59;;;;;;;32.40;25.10;;;17.40;1.00;18.20;100647.00;;;;5013515;28;20971;-73
2021/09/27 06:37:30;;;;;;;29.53;26.33;;;17.30;1.00;18.10;100627.00;;;;5016636;28;20477;-73
2021/09/27 06:40:05;;;;;;;36.17;28.60;;;17.20;1.00;17.90;100641.00;;;;5016030;28;20449;-72
2021/09/27 06:42:35;;;;;;;31.60;26.10;;;17.20;1.00;18.10;100647.00;;;;5007698;28;20452;-73
2021/09/27 06:45:04;;;;;;;31.70;27.30;;;17.20;1.00;18.10;100653.00;;;;5012016;28;20451;-74
2021/09/27 06:47:32;;;;;;;30.43;27.10;;;17.20;1.00;18.00;100646.00;;;;5018928;28;20457;-74
2021/09/27 06:50:01;;;;;;;35.50;29.20;;;17.10;1.00;17.90;100641.00;;;;5007504;28;20457;-74
2021/09/27 06:52:29;;;;;;;30.90;27.43;;;17.00;1.00;18.00;100649.00;;;;5014245;28;20825;-73
2021/09/27 06:54:58;;;;;;;33.33;28.57;;;17.00;1.00;18.00;100645.00;;;;4998708;28;20537;-74
2021/09/27 06:57:26;;;;;;;34.33;27.83;;;17.00;1.00;18.00;100637.00;;;;5016436;28;20472;-74
2021/09/27 06:59:56;;;;;;;33.53;29.40;;;17.10;1.00;18.10;100639.00;;;;5014991;28;20468;-74
2021/09/27 07:02:24;;;;;;;29.43;25.90;;;17.10;1.00;18.20;100624.00;;;;5016716;28;20549;-73
2021/09/27 07:04:53;;;;;;;30.93;25.70;;;17.20;1.00;18.20;100634.00;;;;5016935;28;20463;-74
2021/09/27 07:07:21;;;;;;;33.67;27.03;;;17.20;1.00;18.20;100633.00;;;;4998078;28;20481;-74
2021/09/27 07:09:50;;;;;;;32.03;26.77;;;17.20;1.00;18.20;100635.00;;;;5014859;28;21030;-74
2021/09/27 07:12:18;;;;;;;29.53;25.97;;;17.20;1.00;18.30;100634.00;;;;4998835;28;20476;-74
2021/09/27 07:14:46;;;;;;;33.10;26.90;;;17.30;1.00;18.50;100636.00;;;;4998503;28;20446;-74
2021/09/27 07:17:16;;;;;;;33.10;27.97;;;17.40;1.00;18.50;100610.00;;;;5013489;28;20497;-73
2021/09/27 07:19:44;;;;;;;30.93;27.10;;;17.50;1.00;18.60;100632.00;;;;5017085;28;20461;-74
2021/09/27 07:22:23;;;;;;;34.70;29.63;;;17.50;1.00;18.60;100627.00;;;;5015984;28;20438;-74
2021/09/27 07:24:52;;;;;;;35.20;29.57;;;17.60;1.00;18.70;100635.00;;;;5015578;28;20456;-74
2021/09/27 07:27:20;;;;;;;37.87;29.47;;;17.60;1.00;18.70;100637.00;;;;4996594;28;20481;-74
2021/09/27 07:29:48;;;;;;;36.17;31.70;;;17.50;1.00;18.80;100630.00;;;;5016224;28;20442;-74
2021/09/27 07:32:18;;;;;;;37.70;30.73;;;17.60;1.00;18.90;100608.00;;;;4998837;28;20462;-74
2021/09/27 07:34:47;;;;;;;40.40;31.20;;;17.70;1.00;18.90;100640.00;;;;5015475;28;21231;-73
2021/09/27 07:37:15;;;;;;;36.30;30.47;;;17.70;1.00;18.90;100632.00;;;;4995724;28;20557;-74
2021/09/27 07:39:44;;;;;;;37.37;31.03;;;17.70;1.00;18.80;100641.00;;;;5015151;28;20900;-73
2021/09/27 07:42:13;;;;;;;38.00;32.90;;;17.70;1.00;18.80;100645.00;;;;4997958;28;20509;-73
2021/09/27 07:44:41;;;;;;;43.00;34.07;;;17.60;1.00;18.70;100621.00;;;;5007001;28;20446;-74
2021/09/27 07:47:10;;;;;;;41.70;33.87;;;17.60;1.00;18.70;100648.00;;;;5015979;28;21228;-74
2021/09/27 07:49:39;;;;;;;37.77;31.77;;;17.70;1.00;18.70;100646.00;;;;5014004;28;20556;-73
2021/09/27 07:52:08;;;;;;;39.10;32.47;;;17.60;1.00;18.70;100650.00;;;;5013457;28;20571;-73
2021/09/27 07:54:39;;;;;;;37.43;31.20;;;17.60;1.00;18.80;100641.00;;;;4988782;28;20455;-73
2021/09/27 07:57:08;;;;;;;39.07;32.73;;;17.60;1.00;18.90;100650.00;;;;4984446;28;20552;-73
2021/09/27 07:59:37;;;;;;;34.83;30.33;;;17.80;1.00;18.90;100635.00;;;;5014879;28;20459;-74
2021/09/27 08:02:05;;;;;;;36.63;32.43;;;17.80;1.00;18.90;100647.00;;;;5016354;28;20515;-73
2021/09/27 08:04:35;;;;;;;38.77;30.70;;;17.80;1.00;19.00;100650.00;;;;5014731;28;20504;-74
2021/09/27 08:07:04;;;;;;;37.60;32.97;;;17.90;1.00;19.10;100651.00;;;;5016325;28;20462;-73
2021/09/27 08:09:33;;;;;;;32.83;28.67;;;18.00;1.00;19.40;100645.00;;;;5015559;28;20465;-73
2021/09/27 08:12:01;;;;;;;35.73;31.03;;;18.30;1.00;19.50;100627.00;;;;4999831;28;20568;-73
2021/09/27 08:14:30;;;;;;;30.60;25.67;;;18.40;1.00;19.50;100578.00;;;;5020916;28;20496;-74
2021/09/27 08:16:59;;;;;;;33.13;27.60;;;18.50;1.00;19.70;100645.00;;;;5033034;28;20489;-75
2021/09/27 08:19:27;;;;;;;32.70;26.10;;;18.60;1.00;19.90;100645.00;;;;5032708;28;20461;-74
2021/09/27 08:21:56;;;;;;;33.90;28.77;;;18.80;1.00;20.10;100645.00;;;;5040901;28;20482;-74
2021/09/27 08:24:26;;;;;;;31.70;27.63;;;18.80;1.00;20.30;100648.00;;;;5035292;28;20461;-73
2021/09/27 08:26:54;;;;;;;32.10;27.30;;;19.00;1.00;20.20;100635.00;;;;5036934;28;20502;-75
2021/09/27 08:29:23;;;;;;;28.10;25.10;;;19.00;1.00;20.20;100650.00;;;;5019439;28;20490;-73
2021/09/27 08:31:51;;;;;;;32.80;27.90;;;19.00;1.00;20.30;100655.00;;;;5034478;28;20526;-73
2021/09/27 08:34:19;;;;;;;31.30;27.80;;;19.00;1.00;20.40;100614.00;;;;5023599;23;20498;-74
2021/09/27 08:36:49;;;;;;;28.77;25.67;;;19.20;1.00;20.60;100654.00;;;;5000078;28;20484;-74
2021/09/27 08:39:17;;;;;;;29.60;24.97;;;19.30;1.00;20.60;100668.00;;;;4999782;28;20857;-75
2021/09/27 08:41:57;;;;;;;30.43;27.23;;;19.30;1.00;20.30;100667.00;;;;5017930;28;20461;-82
2021/09/27 08:44:49;;;;;;;29.27;26.17;;;19.10;1.00;19.80;100661.00;;;;5013788;28;20464;-81
2021/09/27 08:47:28;;;;;;;31.60;28.30;;;19.00;1.00;20.50;100611.00;;;;5009720;28;20450;-78
2021/09/27 08:50:02;;;;;;;30.50;24.80;;;19.10;1.00;20.70;100634.00;;;;4989365;28;20800;-80
2021/09/27 08:52:32;;;;;;;27.50;24.40;;;19.50;1.00;21.10;100665.00;;;;4995035;28;20533;-76
2021/09/27 08:55:03;;;;;;;24.23;21.83;;;19.80;1.00;21.10;100660.00;;;;4997116;28;20471;-78
2021/09/27 08:57:45;;;;;;;25.10;22.60;;;20.00;1.00;21.20;100668.00;;;;4992596;28;20459;-78
2021/09/27 09:00:40;;;;;;;23.63;21.20;;;20.00;1.00;21.20;100652.00;;;;4974395;28;20473;-77
2021/09/27 09:03:21;;;;;;;26.17;22.60;;;19.90;1.00;21.20;100635.00;;;;5000656;28;20440;-83
2021/09/27 09:05:54;;;;;;;20.87;18.60;;;19.90;1.00;21.00;100683.00;;;;5003135;28;20462;-78
2021/09/27 09:08:33;;;;;;;21.10;18.93;;;19.80;1.00;21.00;100663.00;;;;5000390;28;20486;-78
2021/09/27 09:11:08;;;;;;;20.70;17.90;;;19.90;1.00;21.00;100663.00;;;;4986873;28;20451;-80
2021/09/27 09:13:43;;;;;;;21.33;19.10;;;19.80;1.00;21.00;100626.00;;;;4993392;28;20466;-80
2021/09/27 09:16:18;;;;;;;21.00;18.83;;;20.00;1.00;20.90;100654.00;;;;5001741;28;20438;-79
2021/09/27 09:18:51;;;;;;;21.27;18.23;;;20.10;1.00;21.40;100648.00;;;;5011695;28;20530;-80
2021/09/27 09:21:30;;;;;;;20.03;18.00;;;20.30;1.00;21.40;100568.00;;;;4995988;28;20462;-78
2021/09/27 09:24:04;;;;;;;20.23;18.00;;;20.20;1.00;21.00;100655.00;;;;5009306;28;20489;-76
2021/09/27 09:26:43;;;;;;;18.87;16.87;;;19.90;1.00;21.20;100618.00;;;;4996987;28;20563;-77
2021/09/27 09:29:20;;;;;;;20.23;18.17;;;19.90;1.00;21.60;100644.00;;;;4995702;28;20462;-78
2021/09/27 09:31:54;;;;;;;21.90;17.90;;;20.30;1.00;21.90;100643.00;;;;4997617;28;20962;-80
2021/09/27 09:34:35;;;;;;;19.07;16.23;;;20.60;1.00;22.00;100643.00;;;;4987408;28;20489;-79
2021/09/27 09:37:08;;;;;;;18.23;16.33;;;20.70;1.00;22.20;100613.00;;;;4993347;28;20467;-79
2021/09/27 09:39:40;;;;;;;17.97;16.07;;;20.80;1.00;22.20;100625.00;;;;4989715;28;20436;-78
2021/09/27 09:42:28;;;;;;;18.97;15.70;;;20.90;1.00;21.90;100642.00;;;;4980879;28;20464;-78
2021/09/27 09:45:13;;;;;;;17.63;15.73;;;20.80;1.00;22.00;100631.00;;;;5004298;28;20479;-79
2021/09/27 09:47:41;;;;;;;16.33;14.60;;;20.70;1.00;22.00;100644.00;;;;4977255;28;20453;-78
2021/09/27 09:50:14;;;;;;;17.53;13.97;;;20.70;1.00;22.00;100646.00;;;;4986025;28;20499;-81
2021/09/27 09:52:46;;;;;;;16.83;14.40;;;20.70;1.00;22.30;100630.00;;;;4995902;28;20456;-78
2021/09/27 09:55:22;;;;;;;15.27;13.40;;;20.80;1.00;22.60;100630.00;;;;5005686;28;20943;-78
2021/09/27 09:58:01;;;;;;;15.03;12.57;;;21.20;1.00;22.80;100631.00;;;;4998333;28;20579;-78
2021/09/27 10:00:47;;;;;;;14.53;13.00;;;21.50;1.00;23.00;100652.00;;;;4996860;28;20489;-79
2021/09/27 10:03:20;;;;;;;14.73;12.23;;;21.70;1.00;23.20;100651.00;;;;4988434;28;20443;-78
2021/09/27 10:05:53;;;;;;;15.30;12.40;;;21.80;1.00;23.20;100623.00;;;;4961674;29;20476;-78
2021/09/27 10:08:26;;;;;;;13.33;11.80;;;21.70;1.00;23.10;100655.00;;;;4993651;28;20469;-77
2021/09/27 10:10:59;;;;;;;13.60;12.20;;;21.60;1.00;22.60;100646.00;;;;4990154;28;20455;-78
2021/09/27 10:13:39;;;;;;;13.53;10.63;;;21.40;1.00;22.60;100647.00;;;;4988476;28;21058;-78
2021/09/27 10:16:15;;;;;;;13.20;10.20;;;21.50;1.00;22.60;100637.00;;;;4993440;28;20465;-78
2021/09/27 10:18:46;;;;;;;11.70;10.50;;;21.60;1.00;22.20;100636.00;;;;5001498;28;20553;-81
2021/09/27 10:21:31;;;;;;;12.27;11.07;;;21.40;1.00;22.10;100652.00;;;;4987345;28;20455;-81
2021/09/27 10:24:17;;;;;;;12.00;10.90;;;21.30;1.00;22.20;100628.00;;;;4988453;28;20475;-81
2021/09/27 10:26:51;;;;;;;11.80;10.70;;;21.40;1.00;22.20;100639.00;;;;4998512;28;20446;-81
2021/09/27 10:29:26;;;;;;;9.87;8.87;;;21.30;1.00;22.10;100648.00;;;;4988197;28;20586;-81
2021/09/27 10:32:00;;;;;;;11.87;10.13;;;21.30;1.00;22.10;100590.00;;;;5000108;28;20453;-81
2021/09/27 10:34:33;;;;;;;11.00;9.90;;;21.30;1.00;22.10;100620.00;;;;4998971;28;21013;-79
2021/09/27 10:37:09;;;;;;;10.73;9.63;;;21.20;1.00;22.30;100595.00;;;;4972824;28;20982;-79
2021/09/27 10:39:37;;;;;;;13.83;9.60;;;21.50;1.00;22.60;100618.00;;;;4978127;28;20489;-80
2021/09/27 10:42:08;;;;;;;13.40;9.10;;;21.60;1.00;23.00;100627.00;;;;4980373;28;20447;-82
2021/09/27 10:44:43;;;;;;;13.50;10.00;;;22.00;1.00;23.30;100547.00;;;;4986180;28;20487;-79
2021/09/27 10:47:18;;;;;;;8.93;8.03;;;22.40;1.00;23.60;100562.00;;;;4983495;28;20486;-79
2021/09/27 10:49:51;;;;;;;9.43;8.43;;;22.80;1.00;23.50;100612.00;;;;4976505;28;20822;-78
2021/09/27 10:52:42;;;;;;;10.23;9.20;;;22.70;1.00;23.40;100635.00;;;;4977710;28;20439;-78
2021/09/27 10:55:18;;;;;;;11.00;9.33;;;22.60;1.00;23.20;100639.00;;;;4980697;28;20475;-78
2021/09/27 10:57:54;;;;;;;10.77;9.67;;;22.40;1.00;23.30;100604.00;;;;4963317;28;20542;-78
2021/09/27 11:00:37;;;;;;;10.50;9.50;;;22.50;1.00;23.40;100622.00;;;;4990191;28;20561;-80
2021/09/27 11:03:22;;;;;;;10.23;9.23;;;22.80;1.00;23.40;100618.00;;;;4982709;28;20482;-79
2021/09/27 11:05:56;;;;;;;11.67;10.17;;;22.90;1.00;23.60;100614.00;;;;4982587;28;20475;-77
2021/09/27 11:08:50;;;;;;;10.40;9.40;;;23.00;1.00;23.70;100614.00;;;;4980494;28;20455;-79
2021/09/27 11:11:37;;;;;;;11.17;10.00;;;23.40;1.00;24.30;100606.00;;;;4982373;28;20455;-77
2021/09/27 11:14:32;;;;;;;14.23;11.03;;;23.80;1.00;24.60;100597.00;;;;4967068;28;20479;-77
2021/09/27 11:17:33;;;;;;;13.17;10.73;;;24.00;1.00;24.40;100601.00;;;;4959656;29;20455;-78
2021/09/27 11:20:59;;;;;;;12.57;11.27;;;23.90;1.00;24.40;100622.00;;;;4978269;28;20489;-78
2021/09/27 11:23:37;;;;;;;12.33;11.17;;;23.60;1.00;24.50;100617.00;;;;4977791;28;21099;-77
2021/09/27 11:26:34;;;;;;;12.80;11.60;;;23.70;1.00;24.60;100614.00;;;;4990798;28;20478;-77
2021/09/27 11:29:46;;;;;;;12.70;11.37;;;23.70;1.00;24.50;100607.00;;;;4970015;28;20570;-77